createdAt,value
2023-02-16T00:02:13.114Z,79.00
2023-02-16T00:04:41.739Z,76.50
2023-02-16T00:07:10.478Z,72.30
2023-02-16T00:09:39.094Z,78.90
2023-02-16T00:12:37.502Z,60.70
2023-02-16T00:15:18.476Z,76.00
2023-02-16T00:17:49.688Z,72.80
2023-02-16T00:20:19.184Z,73.90
2023-02-16T00:22:50.067Z,85.90
2023-02-16T00:25:21.631Z,96.00
2023-02-16T00:27:53.822Z,103.70
2023-02-16T00:30:25.785Z,110.50
2023-02-16T00:32:54.534Z,108.80
2023-02-16T00:35:28.456Z,103.00
2023-02-16T00:38:00.555Z,91.30
2023-02-16T00:40:29.255Z,108.70
2023-02-16T00:42:58.319Z,110.10
2023-02-16T00:45:33.498Z,101.80
2023-02-16T00:48:03.255Z,101.90
2023-02-16T00:50:35.733Z,102.30
2023-02-16T00:53:07.192Z,99.70
2023-02-16T00:55:40.262Z,103.40
2023-02-16T00:58:24.784Z,101.00
2023-02-16T01:00:56.572Z,105.40
2023-02-16T01:03:28.624Z,107.40
2023-02-16T01:06:17.140Z,106.40
2023-02-16T01:09:04.255Z,100.40
2023-02-16T01:11:34.389Z,105.20
2023-02-16T01:14:06.598Z,97.90
2023-02-16T01:16:44.766Z,82.90
2023-02-16T01:19:16.419Z,99.40
2023-02-16T01:21:45.550Z,99.60
2023-02-16T01:24:14.266Z,98.30
2023-02-16T01:26:49.307Z,100.00
2023-02-16T01:29:20.245Z,102.00
2023-02-16T01:31:51.513Z,102.40
2023-02-16T01:34:20.822Z,105.00
2023-02-16T01:36:50.016Z,103.80
2023-02-16T01:39:21.125Z,100.50
2023-02-16T01:42:00.697Z,99.80
2023-02-16T01:44:57.361Z,99.60
2023-02-16T01:47:45.462Z,95.40
2023-02-16T01:50:29.025Z,110.80
2023-02-16T01:53:02.069Z,83.00
2023-02-16T01:55:48.473Z,112.50
2023-02-16T01:58:32.338Z,93.40
2023-02-16T02:01:00.852Z,84.20
2023-02-16T02:03:53.015Z,94.60
2023-02-16T02:06:28.286Z,114.80
2023-02-16T02:09:18.507Z,106.00
2023-02-16T02:11:54.963Z,118.40
2023-02-16T02:14:30.498Z,95.70
2023-02-16T02:17:01.202Z,124.10
2023-02-16T02:19:58.747Z,135.00
2023-02-16T02:23:07.551Z,97.90
2023-02-16T02:25:58.779Z,153.20
2023-02-16T02:28:55.019Z,117.30
2023-02-16T02:32:05.364Z,142.50
2023-02-16T02:35:04.096Z,140.80
2023-02-16T02:37:44.477Z,157.00
2023-02-16T02:40:32.296Z,159.90
2023-02-16T02:43:19.236Z,160.10
2023-02-16T02:46:05.221Z,139.50
2023-02-16T02:48:35.072Z,171.90
2023-02-16T02:51:30.936Z,133.80
2023-02-16T02:54:23.233Z,172.20
2023-02-16T02:57:18.691Z,134.50
2023-02-16T03:00:13.857Z,183.00
2023-02-16T03:02:45.331Z,191.70
2023-02-16T03:05:22.534Z,181.10
2023-02-16T03:07:57.995Z,170.80
2023-02-16T03:10:47.659Z,140.50
2023-02-16T03:13:33.793Z,120.30
2023-02-16T03:16:14.533Z,164.20
2023-02-16T03:19:06.701Z,110.20
2023-02-16T03:21:54.842Z,153.50
2023-02-16T03:24:49.026Z,106.20
2023-02-16T03:27:44.146Z,99.60
2023-02-16T03:30:17.042Z,103.00
2023-02-16T03:32:49.880Z,149.10
2023-02-16T03:35:20.805Z,141.00
2023-02-16T03:37:53.071Z,142.10
2023-02-16T03:40:28.586Z,133.20
2023-02-16T03:43:00.491Z,97.40
2023-02-16T03:45:34.672Z,139.30
2023-02-16T03:48:04.119Z,139.30
2023-02-16T03:50:32.965Z,145.20
2023-02-16T03:53:07.936Z,147.80
2023-02-16T03:55:46.029Z,152.30
2023-02-16T03:58:20.018Z,155.90
2023-02-16T04:03:18.409Z,135.70
2023-02-16T04:05:47.041Z,116.70
2023-02-16T04:08:18.269Z,135.10
2023-02-16T04:10:49.738Z,120.70
2023-02-16T04:13:23.191Z,101.30
2023-02-16T04:15:52.651Z,90.60
2023-02-16T04:18:25.684Z,121.30
2023-02-16T04:23:23.346Z,103.90
2023-02-16T04:25:52.728Z,91.90
2023-02-16T04:28:21.398Z,113.00
2023-02-16T04:30:53.350Z,114.70
2023-02-16T04:33:22.190Z,130.70
2023-02-16T04:35:50.935Z,132.10
2023-02-16T04:38:22.232Z,119.10
2023-02-16T04:40:53.908Z,129.10
2023-02-16T04:43:22.613Z,131.90
2023-02-16T04:45:53.930Z,140.50
2023-02-16T04:48:22.549Z,130.20
2023-02-16T04:50:54.562Z,140.50
2023-02-16T04:53:23.883Z,143.40
2023-02-16T04:55:56.289Z,153.20
2023-02-16T04:58:24.938Z,121.60
2023-02-16T05:00:57.147Z,150.70
2023-02-16T05:03:32.235Z,147.50
2023-02-16T05:06:01.742Z,148.60
2023-02-16T05:08:34.400Z,102.20
2023-02-16T05:11:21.604Z,147.10
2023-02-16T05:14:08.887Z,124.40
2023-02-16T05:16:38.286Z,151.70
2023-02-16T05:19:14.915Z,143.20
2023-02-16T05:21:47.192Z,105.80
2023-02-16T05:24:15.843Z,126.40
2023-02-16T05:26:47.546Z,137.10
2023-02-16T05:29:19.155Z,139.60
2023-02-16T05:31:48.100Z,133.50
2023-02-16T05:34:22.245Z,96.30
2023-02-16T05:36:53.792Z,140.90
2023-02-16T05:39:22.628Z,130.40
2023-02-16T05:41:53.529Z,121.30
2023-02-16T05:44:26.312Z,115.40
2023-02-16T05:49:26.102Z,91.20
2023-02-16T05:51:54.702Z,121.20
2023-02-16T05:54:23.508Z,115.50
2023-02-16T05:56:57.956Z,124.60
2023-02-16T05:59:27.513Z,126.50
2023-02-16T06:01:57.043Z,90.80
2023-02-16T06:04:25.950Z,121.70
2023-02-16T06:06:54.917Z,116.30
2023-02-16T06:09:25.769Z,125.60
2023-02-16T06:11:55.024Z,119.80
2023-02-16T06:14:23.730Z,82.30
2023-02-16T06:16:58.028Z,119.00
2023-02-16T06:19:32.754Z,84.60
2023-02-16T06:22:01.490Z,113.10
2023-02-16T06:24:30.164Z,112.20
2023-02-16T06:26:59.194Z,107.30
2023-02-16T06:29:28.447Z,102.00
2023-02-16T06:31:57.984Z,108.00
2023-02-16T06:34:28.941Z,108.80
2023-02-16T06:36:57.700Z,87.60
2023-02-16T06:39:26.474Z,108.00
2023-02-16T06:41:57.624Z,104.30
2023-02-16T06:44:29.349Z,91.30
2023-02-16T06:46:58.053Z,82.00
2023-02-16T06:49:27.889Z,103.60
2023-02-16T06:51:59.455Z,102.50
2023-02-16T06:54:31.993Z,102.30
2023-02-16T06:57:03.880Z,77.30
2023-02-16T06:59:37.762Z,95.30
2023-02-16T07:02:07.445Z,97.90
2023-02-16T07:04:38.571Z,92.70
2023-02-16T07:07:10.485Z,94.00
2023-02-16T07:09:39.716Z,85.10
2023-02-16T07:12:10.304Z,78.70
2023-02-16T07:14:39.558Z,92.50
2023-02-16T07:17:08.317Z,98.80
2023-02-16T07:19:37.468Z,85.30
2023-02-16T07:22:06.052Z,82.80
2023-02-16T07:24:34.712Z,83.50
2023-02-16T07:27:05.406Z,83.70
2023-02-16T07:29:33.973Z,69.10
2023-02-16T07:32:03.634Z,71.30
2023-02-16T07:34:32.388Z,67.00
2023-02-16T07:37:01.020Z,62.50
2023-02-16T07:39:31.183Z,65.40
2023-02-16T07:42:00.304Z,68.20
2023-02-16T07:44:29.157Z,63.20
2023-02-16T07:46:58.056Z,66.00
2023-02-16T07:49:26.722Z,64.90
2023-02-16T07:51:55.407Z,66.70
2023-02-16T07:54:26.995Z,67.80
2023-02-16T07:56:55.763Z,70.70
2023-02-16T07:59:32.787Z,74.30
2023-02-16T08:02:01.586Z,84.20
2023-02-16T08:04:34.557Z,86.70
2023-02-16T08:07:11.298Z,88.20
2023-02-16T08:09:47.157Z,82.10
2023-02-16T08:12:22.145Z,82.20
2023-02-16T08:14:51.380Z,77.00
2023-02-16T08:17:26.466Z,78.80
2023-02-16T08:19:55.063Z,70.30
2023-02-16T08:22:24.222Z,65.80
2023-02-16T08:24:54.302Z,68.20
2023-02-16T08:27:28.204Z,66.20
2023-02-16T08:29:57.924Z,63.10
2023-02-16T08:32:28.025Z,62.30
2023-02-16T08:35:00.357Z,64.60
2023-02-16T08:37:30.518Z,66.20
2023-02-16T08:40:04.820Z,68.30
2023-02-16T08:42:34.867Z,67.70
2023-02-16T08:45:05.670Z,74.20
2023-02-16T08:47:38.646Z,69.00
2023-02-16T08:50:07.897Z,71.50
2023-02-16T08:52:39.316Z,69.40
2023-02-16T08:55:09.747Z,78.70
2023-02-16T08:57:39.001Z,89.70
2023-02-16T09:00:31.836Z,82.20
2023-02-16T09:05:29.809Z,84.00
2023-02-16T09:07:58.828Z,97.30
2023-02-16T09:10:27.769Z,95.10
2023-02-16T09:12:58.421Z,97.80
2023-02-16T09:15:27.947Z,91.80
2023-02-16T09:18:00.690Z,88.90
2023-02-16T09:20:30.096Z,93.40
2023-02-16T09:22:59.580Z,86.10
2023-02-16T09:25:30.558Z,77.60
2023-02-16T09:28:00.419Z,76.60
2023-02-16T09:30:31.405Z,84.50
2023-02-16T09:33:00.325Z,84.40
2023-02-16T09:35:29.576Z,81.70
2023-02-16T09:38:00.620Z,78.60
2023-02-16T09:40:30.025Z,83.70
2023-02-16T09:43:23.093Z,76.80
2023-02-16T09:45:55.041Z,92.10
2023-02-16T09:48:32.192Z,94.50
2023-02-16T09:51:04.540Z,99.30
2023-02-16T09:53:37.672Z,98.30
2023-02-16T09:59:11.643Z,100.20
2023-02-16T10:01:53.804Z,92.80
2023-02-16T10:04:46.299Z,99.60
2023-02-16T10:07:27.187Z,104.20
2023-02-16T10:09:59.003Z,119.60
2023-02-16T10:12:39.308Z,115.80
2023-02-16T10:15:23.129Z,126.20
2023-02-16T10:17:58.538Z,129.20
2023-02-16T10:20:48.544Z,124.70
2023-02-16T10:27:05.424Z,120.60
2023-02-16T10:29:58.338Z,109.20
2023-02-16T10:33:04.072Z,104.60
2023-02-16T10:35:52.557Z,107.90
2023-02-16T10:38:39.790Z,107.60
2023-02-16T10:41:37.367Z,107.30
2023-02-16T10:44:22.138Z,104.30
2023-02-16T10:47:03.478Z,105.20
2023-02-16T10:49:35.956Z,100.20
2023-02-16T10:52:08.172Z,104.30
2023-02-16T10:55:08.289Z,101.60
2023-02-16T10:57:37.408Z,100.20
2023-02-16T11:00:18.365Z,98.60
2023-02-16T11:02:52.652Z,84.70
2023-02-16T11:05:28.600Z,91.10
2023-02-16T11:08:02.488Z,91.40
2023-02-16T11:10:49.376Z,94.80
2023-02-16T11:13:24.363Z,93.40
2023-02-16T11:15:56.174Z,96.50
2023-02-16T11:18:38.106Z,94.70
2023-02-16T11:21:09.349Z,97.70
2023-02-16T11:23:43.740Z,93.90
2023-02-16T11:26:12.288Z,93.20
2023-02-16T11:28:44.625Z,92.30
2023-02-16T11:31:40.003Z,99.00
2023-02-16T11:34:20.655Z,99.60
2023-02-16T11:36:49.371Z,96.20
2023-02-16T11:39:31.160Z,88.70
2023-02-16T11:42:06.258Z,90.40
2023-02-16T11:44:36.742Z,94.50
2023-02-16T11:47:32.369Z,93.00
2023-02-16T11:50:09.733Z,94.40
2023-02-16T11:52:38.080Z,85.70
2023-02-16T11:55:27.438Z,87.50
2023-02-16T11:57:57.243Z,106.50
2023-02-16T12:00:26.661Z,89.80
2023-02-16T12:03:21.832Z,82.40
2023-02-16T12:06:02.533Z,88.10
2023-02-16T12:08:40.099Z,85.20
2023-02-16T12:11:25.612Z,79.70
2023-02-16T12:14:10.096Z,87.10
2023-02-16T12:16:52.130Z,80.20
2023-02-16T12:19:29.967Z,88.20
2023-02-16T12:22:40.225Z,68.40
2023-02-16T12:25:25.796Z,74.80
2023-02-16T12:28:19.146Z,101.30
2023-02-16T12:33:38.064Z,71.30
2023-02-16T12:36:25.414Z,75.40
2023-02-16T12:39:22.977Z,78.00
2023-02-16T12:42:20.366Z,118.10
2023-02-16T12:44:53.556Z,82.60
2023-02-16T12:47:32.554Z,92.70
2023-02-16T12:50:18.670Z,85.10
2023-02-16T12:52:55.392Z,74.70
2023-02-16T12:55:26.757Z,82.80
2023-02-16T12:58:20.101Z,85.20
2023-02-16T13:00:57.529Z,86.80
2023-02-16T13:03:44.880Z,80.50
2023-02-16T13:06:34.082Z,74.70
2023-02-16T13:10:00.262Z,64.40
2023-02-16T13:12:53.321Z,71.40
2023-02-16T13:18:01.232Z,75.10
2023-02-16T13:20:30.363Z,75.40
2023-02-16T13:23:04.793Z,89.20
2023-02-16T13:25:55.249Z,75.10
2023-02-16T13:28:47.112Z,74.40
2023-02-16T13:31:29.730Z,80.20
2023-02-16T13:34:11.039Z,71.90
2023-02-16T13:36:51.438Z,79.30
2023-02-16T13:39:45.645Z,68.90
2023-02-16T13:42:44.496Z,77.10
2023-02-16T13:45:24.071Z,91.70
2023-02-16T13:47:57.915Z,77.30
2023-02-16T13:50:35.296Z,74.30
2023-02-16T13:53:22.165Z,76.30
2023-02-16T13:56:25.818Z,80.70
2023-02-16T13:59:00.451Z,74.40
2023-02-16T14:01:34.307Z,79.20
2023-02-16T14:04:04.542Z,79.80
2023-02-16T14:06:38.032Z,80.30
2023-02-16T14:11:53.372Z,82.20
2023-02-16T14:14:41.851Z,84.40
2023-02-16T14:17:19.858Z,80.00
2023-02-16T14:20:05.374Z,78.20
2023-02-16T14:22:46.284Z,82.10
2023-02-16T14:25:24.015Z,86.30
2023-02-16T14:27:54.341Z,81.20
2023-02-16T14:30:36.120Z,76.10
2023-02-16T14:33:26.404Z,82.10
2023-02-16T14:35:58.883Z,74.30
2023-02-16T14:38:34.994Z,81.20
2023-02-16T14:41:09.052Z,75.30
2023-02-16T14:43:46.900Z,73.90
2023-02-16T14:46:53.626Z,77.50
2023-02-16T14:49:40.796Z,76.10
2023-02-16T14:52:10.954Z,73.60
2023-02-16T14:55:17.899Z,73.10
2023-02-16T14:58:02.319Z,80.10
2023-02-16T15:00:44.894Z,75.10
2023-02-16T15:03:22.263Z,85.30
2023-02-16T15:06:06.265Z,78.80
2023-02-16T15:11:11.785Z,78.30
2023-02-16T15:13:41.190Z,81.40
2023-02-16T15:16:15.700Z,72.90
2023-02-16T15:18:48.203Z,77.90
2023-02-16T15:21:28.626Z,77.10
2023-02-16T15:24:01.088Z,82.30
2023-02-16T15:26:38.410Z,85.50
2023-02-16T15:29:27.766Z,82.50
2023-02-16T15:31:59.074Z,80.00
2023-02-16T15:34:34.064Z,82.20
2023-02-16T15:37:40.769Z,82.80
2023-02-16T15:40:26.524Z,90.00
2023-02-16T15:42:58.695Z,87.80
2023-02-16T15:45:35.587Z,84.90
2023-02-16T15:48:33.766Z,91.30
2023-02-16T15:51:17.688Z,88.10
2023-02-16T15:54:02.087Z,84.30
2023-02-16T15:56:48.650Z,92.80
2023-02-16T15:59:38.924Z,87.70
2023-02-16T16:02:20.613Z,80.50
2023-02-16T16:04:54.987Z,79.60
2023-02-16T16:07:28.046Z,74.20
2023-02-16T16:12:27.253Z,77.80
2023-02-16T16:14:59.533Z,80.20
2023-02-16T16:17:31.383Z,77.60
2023-02-16T16:20:26.284Z,77.80
2023-02-16T16:23:06.537Z,78.10
2023-02-16T16:25:38.677Z,81.10
2023-02-16T16:28:11.972Z,80.60
2023-02-16T16:30:47.029Z,82.00
2023-02-16T16:33:18.082Z,80.40
2023-02-16T16:35:49.421Z,72.80
2023-02-16T16:38:27.528Z,79.50
2023-02-16T16:40:58.897Z,77.80
2023-02-16T16:43:33.609Z,76.40
2023-02-16T16:46:13.995Z,83.00
2023-02-16T16:48:46.872Z,76.80
2023-02-16T16:51:22.836Z,75.80
2023-02-16T16:53:53.169Z,74.60
2023-02-16T16:56:22.437Z,77.10
2023-02-16T16:58:52.460Z,82.70
2023-02-16T17:01:21.952Z,80.10
2023-02-16T17:03:50.675Z,75.20
2023-02-16T17:06:20.474Z,74.50
2023-02-16T17:08:49.234Z,74.30
2023-02-16T17:11:29.399Z,72.40
2023-02-16T17:14:08.678Z,75.00
2023-02-16T17:16:41.149Z,77.60
2023-02-16T17:19:21.929Z,87.90
2023-02-16T17:21:51.610Z,105.80
2023-02-16T17:24:21.013Z,102.70
2023-02-16T17:26:50.682Z,111.80
2023-02-16T17:29:19.255Z,116.00
2023-02-16T17:31:50.749Z,122.40
2023-02-16T17:34:19.963Z,123.80
2023-02-16T17:36:48.519Z,119.10
2023-02-16T17:39:18.055Z,113.40
2023-02-16T17:41:46.927Z,111.20
2023-02-16T17:44:18.983Z,107.60
2023-02-16T17:46:47.663Z,101.00
2023-02-16T17:49:16.763Z,103.30
2023-02-16T17:51:47.500Z,100.30
2023-02-16T17:54:16.708Z,99.60
2023-02-16T17:56:47.193Z,97.50
2023-02-16T17:59:16.136Z,98.70
2023-02-16T18:01:47.196Z,101.60
2023-02-16T18:04:18.095Z,103.80
2023-02-16T18:06:47.748Z,106.90
2023-02-16T18:09:20.862Z,107.00
2023-02-16T18:14:18.044Z,104.30
2023-02-16T18:16:52.210Z,102.80
2023-02-16T18:19:26.983Z,112.00
2023-02-16T18:21:58.609Z,95.70
2023-02-16T18:24:33.138Z,109.20
2023-02-16T18:27:07.601Z,101.40
2023-02-16T18:29:36.761Z,105.60
2023-02-16T18:32:05.858Z,109.20
2023-02-16T18:34:35.243Z,107.60
2023-02-16T18:37:06.425Z,106.70
2023-02-16T18:39:37.648Z,104.10
2023-02-16T18:42:06.277Z,108.10
2023-02-16T18:44:35.447Z,103.70
2023-02-16T18:47:04.060Z,112.30
2023-02-16T18:49:32.762Z,121.70
2023-02-16T18:52:10.540Z,110.70
2023-02-16T18:54:44.944Z,104.90
2023-02-16T18:57:16.765Z,104.20
2023-02-16T18:59:45.994Z,89.60
2023-02-16T19:02:19.661Z,85.60
2023-02-16T19:04:48.710Z,88.20
2023-02-16T19:07:24.071Z,88.10
2023-02-16T19:10:01.176Z,90.20
2023-02-16T19:12:37.917Z,98.20
2023-02-16T19:15:07.967Z,93.10
2023-02-16T19:17:42.464Z,92.30
2023-02-16T19:20:18.761Z,90.00
2023-02-16T19:22:48.424Z,89.70
2023-02-16T19:25:22.502Z,92.00
2023-02-16T19:27:57.194Z,102.30
2023-02-16T19:30:28.119Z,110.30
2023-02-16T19:32:56.856Z,109.80
2023-02-16T19:35:25.500Z,103.60
2023-02-16T19:37:54.142Z,96.90
2023-02-16T19:40:34.462Z,102.80
2023-02-16T19:43:05.296Z,97.80
2023-02-16T19:45:41.407Z,103.90
2023-02-16T19:48:20.712Z,104.80
2023-02-16T19:50:57.897Z,107.60
2023-02-16T19:53:27.161Z,101.80
2023-02-16T19:55:55.834Z,106.00
2023-02-16T19:58:26.791Z,95.70
2023-02-16T20:00:55.675Z,97.90
2023-02-16T20:03:27.152Z,101.10
2023-02-16T20:05:57.311Z,99.40
2023-02-16T20:08:37.523Z,99.20
2023-02-16T20:11:08.592Z,96.20
2023-02-16T20:13:39.247Z,101.60
2023-02-16T20:16:12.679Z,100.90
2023-02-16T20:18:47.832Z,101.70
2023-02-16T20:21:28.568Z,104.60
2023-02-16T20:24:03.948Z,94.00
2023-02-16T20:26:39.635Z,90.60
2023-02-16T20:29:12.347Z,94.10
2023-02-16T20:31:53.521Z,92.80
2023-02-16T20:34:27.801Z,95.50
2023-02-16T20:36:58.911Z,103.60
2023-02-16T20:39:36.496Z,93.90
2023-02-16T20:42:06.360Z,98.10
2023-02-16T20:44:35.715Z,94.80
2023-02-16T20:47:05.287Z,98.50
2023-02-16T20:49:35.169Z,91.20
2023-02-16T20:52:07.239Z,96.40
2023-02-16T20:54:36.979Z,97.30
2023-02-16T20:57:09.549Z,94.20
2023-02-16T20:59:45.558Z,89.00
2023-02-16T21:02:15.239Z,91.30
2023-02-16T21:04:48.690Z,93.60
2023-02-16T21:07:17.351Z,90.50
2023-02-16T21:13:12.140Z,94.90
2023-02-16T21:15:40.992Z,99.20
2023-02-16T21:18:12.072Z,90.60
2023-02-16T21:20:41.354Z,110.20
2023-02-16T21:23:13.238Z,94.80
2023-02-16T21:25:42.702Z,101.30
2023-02-16T21:28:11.772Z,109.00
2023-02-16T21:30:43.638Z,103.40
2023-02-16T21:33:12.357Z,106.10
2023-02-16T21:35:41.020Z,82.20
2023-02-16T21:38:10.418Z,96.40
2023-02-16T21:40:57.611Z,102.50
2023-02-16T21:43:29.037Z,103.90
2023-02-16T21:46:01.524Z,100.40
2023-02-16T21:48:46.148Z,95.20
2023-02-16T21:51:21.330Z,79.30
2023-02-16T21:53:51.265Z,97.40
2023-02-16T21:56:32.296Z,95.30
2023-02-16T21:59:01.379Z,100.30
2023-02-16T22:01:33.437Z,94.00
2023-02-16T22:04:02.788Z,94.50
2023-02-16T22:06:40.234Z,96.10
2023-02-16T22:09:14.492Z,88.80
2023-02-16T22:11:43.535Z,83.30
2023-02-16T22:14:13.751Z,80.50
2023-02-16T22:16:46.844Z,79.60
2023-02-16T22:19:18.536Z,87.20
2023-02-16T22:21:48.422Z,89.50
2023-02-16T22:24:18.404Z,80.30
2023-02-16T22:26:48.902Z,85.90
2023-02-16T22:29:18.013Z,82.80
2023-02-16T22:31:48.661Z,78.20
2023-02-16T22:34:20.511Z,79.80
2023-02-16T22:36:49.620Z,85.90
2023-02-16T22:39:19.410Z,80.10
2023-02-16T22:41:51.829Z,82.90
2023-02-16T22:46:49.368Z,84.30
2023-02-16T22:49:18.212Z,83.70
2023-02-16T22:51:49.781Z,85.60
2023-02-16T22:54:18.544Z,84.30
2023-02-16T22:56:47.143Z,86.30
2023-02-16T22:59:15.589Z,90.80
2023-02-16T23:01:44.077Z,70.20
2023-02-16T23:04:15.608Z,82.90
2023-02-16T23:06:45.230Z,85.70
2023-02-16T23:09:22.122Z,82.90
2023-02-16T23:11:51.833Z,88.10
2023-02-16T23:14:21.025Z,87.10
2023-02-16T23:16:53.410Z,90.40
2023-02-16T23:19:25.008Z,82.80
2023-02-16T23:21:54.921Z,82.80
2023-02-16T23:24:24.428Z,86.80
2023-02-16T23:26:53.342Z,83.60
2023-02-16T23:29:21.925Z,85.80
2023-02-16T23:31:51.605Z,80.70
2023-02-16T23:34:20.999Z,79.10
2023-02-16T23:36:49.652Z,78.50
2023-02-16T23:39:19.183Z,79.50
2023-02-16T23:41:48.640Z,78.20
2023-02-16T23:44:17.487Z,77.80
2023-02-16T23:46:46.087Z,76.00
2023-02-16T23:49:15.358Z,79.30
2023-02-16T23:51:43.949Z,72.50
2023-02-16T23:54:12.663Z,70.70
2023-02-16T23:56:41.914Z,78.10
2023-02-16T23:59:10.530Z,54.20
